createdAt,value
2022-08-28T00:00:15.609Z,41.17
2022-08-28T00:05:13.156Z,40.65
2022-08-28T00:10:11.250Z,40.49
2022-08-28T00:15:09.521Z,40.43
2022-08-28T00:20:18.050Z,38.76
2022-08-28T00:25:15.492Z,39.44
2022-08-28T00:30:12.240Z,39.67
2022-08-28T00:35:09.113Z,41.17
2022-08-28T00:40:08.446Z,41.31
2022-08-28T00:45:05.622Z,41.22
2022-08-28T00:50:03.175Z,41.83
2022-08-28T00:55:01.385Z,41.63
2022-08-28T00:59:58.819Z,42.02
2022-08-28T01:04:55.659Z,41.75
2022-08-28T01:09:53.484Z,41.69
2022-08-28T01:14:51.995Z,40.75
2022-08-28T01:19:55.839Z,41.59
2022-08-28T01:24:53.779Z,42.06
2022-08-28T01:29:50.360Z,42.07
2022-08-28T01:34:47.080Z,42.27
2022-08-28T01:39:43.563Z,42.18
2022-08-28T01:44:40.723Z,41.99
2022-08-28T01:49:37.375Z,41.46
2022-08-28T01:54:33.939Z,42.34
2022-08-28T01:59:32.671Z,41.26
2022-08-28T02:04:31.932Z,41.16
2022-08-28T02:09:29.134Z,41.41
2022-08-28T02:14:25.750Z,40.92
2022-08-28T02:19:22.351Z,41.21
2022-08-28T02:24:19.760Z,41.09
2022-08-28T02:29:16.634Z,41.09
2022-08-28T02:34:13.282Z,41.45
2022-08-28T02:39:09.937Z,42.77
2022-08-28T02:44:07.215Z,41.68
2022-08-28T02:49:03.839Z,42.65
2022-08-28T02:54:00.788Z,43.23
2022-08-28T02:58:57.792Z,43.58
2022-08-28T03:03:55.099Z,43.86
2022-08-28T03:08:51.665Z,43.95
2022-08-28T03:13:48.968Z,44.31
2022-08-28T03:18:45.554Z,44.00
2022-08-28T03:23:42.841Z,44.70
2022-08-28T03:28:41.262Z,44.77
2022-08-28T03:33:38.038Z,44.27
2022-08-28T03:38:40.870Z,44.64
2022-08-28T03:43:38.134Z,44.57
2022-08-28T03:48:35.765Z,43.50
2022-08-28T03:53:32.497Z,44.26
2022-08-28T03:58:29.068Z,44.50
2022-08-28T04:03:26.548Z,43.80
2022-08-28T04:08:23.264Z,42.86
2022-08-28T04:13:20.240Z,42.60
2022-08-28T04:18:16.856Z,42.19
2022-08-28T04:23:14.084Z,41.76
2022-08-28T04:28:10.657Z,41.25
2022-08-28T04:33:07.378Z,40.71
2022-08-28T04:38:05.555Z,42.28
2022-08-28T04:43:03.150Z,42.58
2022-08-28T04:48:00.231Z,43.18
2022-08-28T04:52:59.924Z,44.58
2022-08-28T04:57:56.588Z,44.61
2022-08-28T05:02:54.452Z,44.60
2022-08-28T05:07:51.132Z,43.66
2022-08-28T05:12:47.824Z,43.44
2022-08-28T05:17:46.537Z,42.87
2022-08-28T05:22:43.807Z,42.57
2022-08-28T05:27:40.657Z,40.78
2022-08-28T05:32:37.300Z,40.64
2022-08-28T05:37:34.073Z,40.68
2022-08-28T05:42:33.113Z,41.48
2022-08-28T05:47:32.562Z,43.05
2022-08-28T05:52:29.701Z,44.91
2022-08-28T05:57:26.470Z,45.91
2022-08-28T06:02:23.802Z,45.88
2022-08-28T06:07:20.454Z,46.94
2022-08-28T06:12:17.116Z,46.44
2022-08-28T06:17:14.794Z,45.32
2022-08-28T06:22:14.216Z,44.93
2022-08-28T06:27:10.825Z,45.13
2022-08-28T06:32:08.469Z,43.99
2022-08-28T06:37:05.108Z,42.79
2022-08-28T06:42:02.599Z,43.26
2022-08-28T06:46:59.755Z,43.64
2022-08-28T06:51:56.366Z,42.72
2022-08-28T06:56:53.601Z,42.86
2022-08-28T07:01:52.400Z,42.87
2022-08-28T07:06:53.698Z,42.22
2022-08-28T07:11:51.144Z,41.53
2022-08-28T07:16:49.039Z,41.28
2022-08-28T07:21:47.421Z,41.45
2022-08-28T07:26:44.869Z,40.93
2022-08-28T07:31:43.362Z,41.72
2022-08-28T07:36:40.862Z,41.55
2022-08-28T07:41:39.727Z,41.08
2022-08-28T07:46:37.033Z,40.49
2022-08-28T07:51:33.668Z,40.48
2022-08-28T07:56:30.541Z,39.72
2022-08-28T08:01:29.141Z,39.44
2022-08-28T08:06:28.065Z,39.14
2022-08-28T08:11:32.447Z,39.05
2022-08-28T08:16:30.243Z,39.10
2022-08-28T08:21:30.286Z,38.79
2022-08-28T08:26:28.341Z,39.27
2022-08-28T08:31:26.113Z,37.80
2022-08-28T08:36:24.276Z,37.38
2022-08-28T08:41:22.995Z,36.93
2022-08-28T08:46:20.122Z,36.45
2022-08-28T08:51:19.978Z,35.86
2022-08-28T08:56:21.112Z,35.62
2022-08-28T09:01:21.189Z,35.26
2022-08-28T09:06:21.265Z,35.06
2022-08-28T09:11:23.590Z,35.61
2022-08-28T09:16:26.933Z,34.28
2022-08-28T09:21:28.995Z,33.49
2022-08-28T09:26:26.907Z,31.78
2022-08-28T09:31:31.429Z,30.39
2022-08-28T09:36:29.556Z,31.18
2022-08-28T09:41:45.498Z,31.12
2022-08-28T09:46:47.403Z,29.84
2022-08-28T09:51:44.047Z,29.78
2022-08-28T09:56:42.112Z,29.71
2022-08-28T10:01:44.779Z,29.10
2022-08-28T10:06:44.100Z,28.93
2022-08-28T10:11:48.155Z,27.59
2022-08-28T10:16:51.460Z,27.27
2022-08-28T10:21:55.309Z,28.01
2022-08-28T10:26:55.569Z,28.09
2022-08-28T10:31:59.245Z,26.55
2022-08-28T10:37:02.119Z,26.05
2022-08-28T10:42:02.428Z,26.14
2022-08-28T10:46:59.424Z,24.66
2022-08-28T10:52:00.786Z,26.19
2022-08-28T10:57:03.366Z,25.05
2022-08-28T11:02:00.925Z,25.61
2022-08-28T11:07:01.175Z,24.33
2022-08-28T11:12:01.759Z,24.09
2022-08-28T11:17:01.573Z,23.37
2022-08-28T11:22:02.115Z,22.36
2022-08-28T11:27:05.976Z,22.19
2022-08-28T11:32:17.437Z,21.85
2022-08-28T11:37:34.713Z,22.90
2022-08-28T11:42:36.757Z,22.60
2022-08-28T11:47:45.166Z,23.53
2022-08-28T11:52:53.940Z,23.18
2022-08-28T12:03:08.235Z,22.92
2022-08-28T12:08:05.590Z,23.56
2022-08-28T12:13:02.758Z,23.73
2022-08-28T12:18:00.596Z,22.83
2022-08-28T12:22:58.740Z,23.28
2022-08-28T12:27:56.813Z,23.01
2022-08-28T12:32:56.282Z,22.51
2022-08-28T12:38:00.675Z,23.45
2022-08-28T12:42:59.630Z,23.07
2022-08-28T12:47:57.876Z,23.09
2022-08-28T12:52:56.585Z,24.13
2022-08-28T12:57:53.546Z,23.64
2022-08-28T13:02:51.554Z,24.35
2022-08-28T13:07:49.620Z,24.31
2022-08-28T13:12:55.985Z,24.44
2022-08-28T13:17:54.659Z,25.61
2022-08-28T13:22:51.429Z,24.48
2022-08-28T13:27:54.993Z,24.75
2022-08-28T13:32:56.296Z,23.99
2022-08-28T13:37:53.647Z,23.87
2022-08-28T13:42:51.328Z,23.76
2022-08-28T13:47:47.951Z,23.42
2022-08-28T13:52:45.320Z,22.94
2022-08-28T13:57:43.410Z,23.34
2022-08-28T14:02:58.598Z,23.19
2022-08-28T14:07:55.895Z,23.73
2022-08-28T14:12:52.635Z,23.23
2022-08-28T14:17:49.494Z,23.28
2022-08-28T14:22:46.093Z,24.17
2022-08-28T14:27:43.359Z,23.50
2022-08-28T14:32:39.991Z,22.62
2022-08-28T14:37:36.556Z,22.72
2022-08-28T14:42:33.167Z,25.14
2022-08-28T14:47:30.660Z,24.28
2022-08-28T14:52:27.319Z,24.44
2022-08-28T14:57:23.953Z,23.74
2022-08-28T15:02:20.656Z,23.16
2022-08-28T15:07:20.616Z,23.39
2022-08-28T15:12:17.546Z,23.27
2022-08-28T15:17:14.172Z,23.38
2022-08-28T15:22:10.823Z,23.46
2022-08-28T15:27:08.093Z,23.72
2022-08-28T15:32:08.341Z,23.63
2022-08-28T15:37:07.802Z,23.87
2022-08-28T15:42:06.052Z,22.63
2022-08-28T15:47:04.303Z,22.43
2022-08-28T15:52:00.909Z,22.17
2022-08-28T15:56:57.553Z,22.91
2022-08-28T16:01:54.366Z,22.61
2022-08-28T16:06:56.656Z,23.34
2022-08-28T16:11:57.400Z,23.72
2022-08-28T16:16:53.917Z,23.67
2022-08-28T16:21:51.330Z,23.62
2022-08-28T16:26:48.026Z,23.88
2022-08-28T16:31:45.184Z,24.28
2022-08-28T16:36:41.780Z,24.41
2022-08-28T16:41:39.049Z,24.67
2022-08-28T16:46:35.759Z,24.55
2022-08-28T16:51:32.480Z,24.50
2022-08-28T16:56:29.095Z,24.77
2022-08-28T17:01:27.978Z,24.79
2022-08-28T17:06:25.511Z,25.41
2022-08-28T17:11:22.078Z,25.30
2022-08-28T17:16:19.903Z,26.66
2022-08-28T17:21:36.349Z,31.60
2022-08-28T17:26:32.959Z,30.46
2022-08-28T17:31:29.721Z,28.10
2022-08-28T17:36:33.791Z,27.84
2022-08-28T17:41:31.414Z,27.90
2022-08-28T17:46:28.064Z,28.28
2022-08-28T17:51:33.178Z,28.24
2022-08-28T17:56:41.837Z,31.72
2022-08-28T18:01:38.654Z,31.93
2022-08-28T18:06:35.362Z,30.80
2022-08-28T18:11:32.050Z,30.56
2022-08-28T18:16:31.785Z,30.03
2022-08-28T18:21:28.937Z,30.66
2022-08-28T18:26:25.689Z,32.82
2022-08-28T18:31:22.683Z,31.01
2022-08-28T18:36:22.415Z,31.24
2022-08-28T18:41:19.861Z,31.88
2022-08-28T18:46:16.676Z,33.79
2022-08-28T18:51:13.628Z,38.15
2022-08-28T18:56:12.152Z,37.15
2022-08-28T19:01:09.145Z,38.44
2022-08-28T19:06:06.021Z,38.42
2022-08-28T19:11:06.966Z,39.21
2022-08-28T19:16:04.701Z,39.15
2022-08-28T19:21:05.089Z,39.28
2022-08-28T19:26:02.051Z,39.43
2022-08-28T19:30:58.747Z,41.94
2022-08-28T19:35:56.128Z,42.67
2022-08-28T19:40:52.839Z,42.30
2022-08-28T19:45:49.482Z,39.20
2022-08-28T19:50:46.056Z,39.52
2022-08-28T19:55:43.316Z,39.82
2022-08-28T20:00:39.855Z,39.62
2022-08-28T20:05:38.291Z,38.38
2022-08-28T20:10:37.322Z,37.63
2022-08-28T20:15:34.779Z,36.71
2022-08-28T20:20:31.455Z,36.64
2022-08-28T20:25:28.120Z,36.53
2022-08-28T20:30:24.735Z,36.39
2022-08-28T20:35:22.246Z,35.63
2022-08-28T20:40:21.469Z,34.74
2022-08-28T20:45:18.810Z,33.48
2022-08-28T20:50:15.487Z,33.37
2022-08-28T20:55:13.569Z,32.59
2022-08-28T21:00:10.916Z,32.10
2022-08-28T21:05:08.016Z,32.80
2022-08-28T21:10:07.903Z,32.89
2022-08-28T21:15:06.236Z,32.91
2022-08-28T21:20:05.808Z,32.47
2022-08-28T21:25:03.567Z,32.35
2022-08-28T21:30:00.454Z,31.93
2022-08-28T21:34:58.401Z,32.46
2022-08-28T21:39:56.429Z,33.28
2022-08-28T21:44:53.900Z,33.59
2022-08-28T21:49:50.978Z,34.57
2022-08-28T21:54:50.222Z,35.44
2022-08-28T21:59:46.785Z,36.09
2022-08-28T22:04:43.319Z,36.22
2022-08-28T22:09:40.255Z,38.36
2022-08-28T22:14:37.751Z,40.16
2022-08-28T22:19:34.305Z,40.27
2022-08-28T22:24:30.867Z,41.21
2022-08-28T22:29:30.192Z,40.97
2022-08-28T22:34:27.474Z,38.22
2022-08-28T22:39:24.003Z,36.89
2022-08-28T22:44:20.540Z,36.15
2022-08-28T22:49:17.100Z,36.32
2022-08-28T22:54:14.348Z,35.97
2022-08-28T22:59:11.314Z,36.05
2022-08-28T23:04:08.046Z,34.94
2022-08-28T23:09:04.760Z,34.84
2022-08-28T23:14:02.229Z,34.86
2022-08-28T23:19:13.892Z,35.31
2022-08-28T23:24:11.550Z,35.22
2022-08-28T23:29:09.108Z,34.68
2022-08-28T23:34:05.749Z,34.12
2022-08-28T23:39:02.906Z,35.42
2022-08-28T23:43:59.822Z,36.49
2022-08-28T23:48:57.129Z,35.56
2022-08-28T23:53:53.837Z,34.65
2022-08-28T23:58:53.227Z,34.12
